createdAt,value
2018-06-19T00:01:20.139Z,15.00
2018-06-19T00:03:56.372Z,15.00
2018-06-19T00:06:30.675Z,15.00
2018-06-19T00:09:03.239Z,15.00
2018-06-19T00:11:38.849Z,15.00
2018-06-19T00:14:12.897Z,15.00
2018-06-19T00:16:46.007Z,15.00
2018-06-19T00:19:19.074Z,14.90
2018-06-19T00:22:01.579Z,14.90
2018-06-19T00:24:39.561Z,14.90
2018-06-19T00:27:09.954Z,14.90
2018-06-19T00:29:53.169Z,14.90
2018-06-19T00:32:26.515Z,14.80
2018-06-19T00:35:00.362Z,14.80
2018-06-19T00:37:32.284Z,14.70
2018-06-19T00:40:02.223Z,14.70
2018-06-19T00:42:34.123Z,14.60
2018-06-19T00:45:04.098Z,14.50
2018-06-19T00:47:37.569Z,14.40
2018-06-19T00:50:10.770Z,14.40
2018-06-19T00:52:41.790Z,14.30
2018-06-19T00:55:12.714Z,14.30
2018-06-19T00:57:44.222Z,14.30
2018-06-19T01:00:15.911Z,14.30
2018-06-19T01:02:45.874Z,14.30
2018-06-19T01:05:16.790Z,14.30
2018-06-19T01:08:04.325Z,14.30
2018-06-19T01:10:37.730Z,14.30
2018-06-19T01:13:11.418Z,14.30
2018-06-19T01:15:49.410Z,14.30
2018-06-19T01:18:20.308Z,14.20
2018-06-19T01:20:54.179Z,14.10
2018-06-19T01:23:24.224Z,14.00
2018-06-19T01:26:07.572Z,14.00
2018-06-19T01:28:41.405Z,14.00
2018-06-19T01:31:29.874Z,14.00
2018-06-19T01:34:00.367Z,14.00
2018-06-19T01:36:33.158Z,14.00
2018-06-19T01:39:13.185Z,14.00
2018-06-19T01:41:45.680Z,14.00
2018-06-19T01:44:22.441Z,14.00
2018-06-19T01:46:55.034Z,14.00
2018-06-19T01:49:30.178Z,14.00
2018-06-19T01:52:06.115Z,13.90
2018-06-19T01:54:41.947Z,13.90
2018-06-19T01:57:20.285Z,13.90
2018-06-19T02:00:01.448Z,13.90
2018-06-19T02:02:31.865Z,13.90
2018-06-19T02:05:04.851Z,14.00
2018-06-19T02:07:44.991Z,14.10
2018-06-19T02:10:15.859Z,14.10
2018-06-19T02:12:58.088Z,14.10
2018-06-19T02:15:28.892Z,14.20
2018-06-19T02:18:00.553Z,14.30
2018-06-19T02:20:33.039Z,14.30
2018-06-19T02:23:09.390Z,14.40
2018-06-19T02:25:41.131Z,14.50
2018-06-19T02:28:13.034Z,14.50
2018-06-19T02:30:56.133Z,14.50
2018-06-19T02:33:32.540Z,14.50
2018-06-19T02:36:03.123Z,14.50
2018-06-19T02:38:34.817Z,14.50
2018-06-19T02:41:06.452Z,14.50
2018-06-19T02:43:50.423Z,14.60
2018-06-19T02:46:24.364Z,14.50
2018-06-19T02:48:58.415Z,14.60
2018-06-19T02:51:29.986Z,14.60
2018-06-19T02:54:26.106Z,14.60
2018-06-19T02:57:03.474Z,14.70
2018-06-19T02:59:38.945Z,14.50
2018-06-19T03:02:14.047Z,14.50
2018-06-19T03:04:48.078Z,14.40
2018-06-19T03:07:24.694Z,14.30
2018-06-19T03:10:11.788Z,14.30
2018-06-19T03:13:10.531Z,14.20
2018-06-19T03:15:46.538Z,14.10
2018-06-19T03:18:20.816Z,14.10
2018-06-19T03:23:36.882Z,14.10
2018-06-19T03:26:12.839Z,14.10
2018-06-19T03:28:45.216Z,14.10
2018-06-19T03:31:24.128Z,14.10
2018-06-19T03:33:55.836Z,14.10
2018-06-19T03:36:26.793Z,14.10
2018-06-19T03:38:59.272Z,14.10
2018-06-19T03:41:37.901Z,14.00
2018-06-19T03:44:08.866Z,14.00
2018-06-19T03:46:46.844Z,14.00
2018-06-19T03:49:24.924Z,14.10
2018-06-19T03:51:56.793Z,14.00
2018-06-19T03:54:28.478Z,14.00
2018-06-19T04:00:02.672Z,14.00
2018-06-19T04:05:45.763Z,14.00
2018-06-19T04:08:21.726Z,14.00
2018-06-19T04:10:56.205Z,14.10
2018-06-19T04:13:54.171Z,14.10
2018-06-19T04:16:31.151Z,14.20
2018-06-19T04:19:07.025Z,14.30
2018-06-19T04:21:55.456Z,14.50
2018-06-19T04:24:31.958Z,14.50
2018-06-19T04:27:03.324Z,14.60
2018-06-19T04:29:35.889Z,14.70
2018-06-19T04:32:11.703Z,14.80
2018-06-19T04:34:43.682Z,14.80
2018-06-19T04:37:14.410Z,14.90
2018-06-19T04:39:56.737Z,15.10
2018-06-19T04:42:28.561Z,15.20
2018-06-19T04:45:02.911Z,15.30
2018-06-19T04:47:37.211Z,15.50
2018-06-19T04:50:14.449Z,15.60
2018-06-19T04:52:47.474Z,15.80
2018-06-19T04:58:20.388Z,16.20
2018-06-19T05:01:02.935Z,16.20
2018-06-19T05:03:33.506Z,16.30
2018-06-19T05:06:23.231Z,16.40
2018-06-19T05:08:53.834Z,16.60
2018-06-19T05:11:26.424Z,16.70
2018-06-19T05:14:02.775Z,16.90
2018-06-19T05:16:40.066Z,17.10
2018-06-19T05:21:50.687Z,17.50
2018-06-19T05:24:25.258Z,17.80
2018-06-19T05:26:56.951Z,17.90
2018-06-19T05:29:38.610Z,18.00
2018-06-19T05:32:14.484Z,17.90
2018-06-19T05:34:49.037Z,17.80
2018-06-19T05:37:31.717Z,17.90
2018-06-19T05:40:06.118Z,17.80
2018-06-19T05:42:41.208Z,17.90
2018-06-19T05:45:14.958Z,17.90
2018-06-19T05:47:51.963Z,18.20
2018-06-19T05:50:34.146Z,18.20
2018-06-19T05:53:05.943Z,18.30
2018-06-19T05:55:38.571Z,18.30
2018-06-19T05:58:09.357Z,18.40
2018-06-19T06:00:43.530Z,18.40
2018-06-19T06:03:24.241Z,18.20
2018-06-19T06:05:58.499Z,18.30
2018-06-19T06:08:36.404Z,18.40
2018-06-19T06:11:15.402Z,18.50
2018-06-19T06:13:51.478Z,18.50
2018-06-19T06:16:30.699Z,18.50
2018-06-19T06:19:11.468Z,18.60
2018-06-19T06:21:47.778Z,18.90
2018-06-19T06:24:29.119Z,19.00
2018-06-19T06:27:18.063Z,19.00
2018-06-19T06:29:53.284Z,19.30
2018-06-19T06:32:29.635Z,20.20
2018-06-19T06:35:13.903Z,20.80
2018-06-19T06:37:44.553Z,20.90
2018-06-19T06:40:26.663Z,20.80
2018-06-19T06:43:01.416Z,21.90
2018-06-19T06:45:32.114Z,24.00
2018-06-19T06:48:13.757Z,25.70
2018-06-19T06:50:58.037Z,25.50
2018-06-19T06:53:47.176Z,26.30
2018-06-19T06:56:23.809Z,27.40
2018-06-19T06:58:57.389Z,28.40
2018-06-19T07:01:37.746Z,27.90
2018-06-19T07:04:10.383Z,28.60
2018-06-19T07:07:04.921Z,29.40
2018-06-19T07:09:35.583Z,30.80
2018-06-19T07:12:07.955Z,31.60
2018-06-19T07:14:40.260Z,31.00
2018-06-19T07:17:11.702Z,30.40
2018-06-19T07:19:44.135Z,30.70
2018-06-19T07:22:14.648Z,31.30
2018-06-19T07:24:46.674Z,31.00
2018-06-19T07:27:17.288Z,31.40
2018-06-19T07:32:17.728Z,31.70
2018-06-19T07:34:49.235Z,31.90
2018-06-19T07:37:29.975Z,31.30
2018-06-19T07:40:10.694Z,30.50
2018-06-19T07:42:46.087Z,30.10
2018-06-19T07:45:23.995Z,29.10
2018-06-19T07:47:58.125Z,29.50
2018-06-19T07:50:32.496Z,30.30
2018-06-19T07:53:06.579Z,30.90
2018-06-19T07:55:52.468Z,31.40
2018-06-19T07:58:51.194Z,31.50
2018-06-19T08:04:22.184Z,31.50
2018-06-19T08:06:53.236Z,31.80
2018-06-19T08:09:33.156Z,31.60
2018-06-19T08:12:08.708Z,31.50
2018-06-19T08:14:52.365Z,31.30
2018-06-19T08:17:33.336Z,31.30
2018-06-19T08:20:05.866Z,32.00
2018-06-19T08:22:41.073Z,31.20
2018-06-19T08:25:19.528Z,31.30
2018-06-19T08:27:51.132Z,31.90
2018-06-19T08:30:24.999Z,32.50
2018-06-19T08:35:44.672Z,30.70
2018-06-19T08:38:18.648Z,29.20
2018-06-19T08:40:53.843Z,27.40
2018-06-19T08:43:30.357Z,26.70
2018-06-19T08:46:04.889Z,26.00
2018-06-19T08:48:52.421Z,25.20
2018-06-19T08:51:29.139Z,24.80
2018-06-19T08:56:43.953Z,24.70
2018-06-19T08:59:20.422Z,24.50
2018-06-19T09:02:07.201Z,24.50
2018-06-19T09:05:02.198Z,24.00
2018-06-19T09:10:13.094Z,25.10
2018-06-19T09:12:50.822Z,25.50
2018-06-19T09:15:27.683Z,26.30
2018-06-19T09:18:12.535Z,26.60
2018-06-19T09:20:53.539Z,26.60
2018-06-19T09:23:27.322Z,26.70
2018-06-19T09:26:01.648Z,26.10
2018-06-19T09:28:38.100Z,25.70
2018-06-19T09:31:27.582Z,25.70
2018-06-19T09:34:07.466Z,26.60
2018-06-19T09:36:43.301Z,26.70
2018-06-19T09:39:18.043Z,26.60
2018-06-19T09:41:53.879Z,27.20
2018-06-19T09:44:25.198Z,28.70
2018-06-19T09:47:01.770Z,29.40
2018-06-19T09:49:38.058Z,29.20
2018-06-19T09:52:10.642Z,30.50
2018-06-19T09:54:46.895Z,31.20
2018-06-19T09:57:22.826Z,31.20
2018-06-19T10:00:05.851Z,30.90
2018-06-19T10:03:04.746Z,31.20
2018-06-19T10:05:37.691Z,31.00
2018-06-19T10:08:16.676Z,29.40
2018-06-19T10:10:57.858Z,28.10
2018-06-19T10:13:44.482Z,28.20
2018-06-19T10:16:28.402Z,27.80
2018-06-19T10:19:11.563Z,26.70
2018-06-19T10:21:42.305Z,27.60
2018-06-19T10:24:15.987Z,28.20
2018-06-19T10:26:51.513Z,28.40
2018-06-19T10:29:24.326Z,28.30
2018-06-19T10:32:16.623Z,30.30
2018-06-19T10:35:00.094Z,31.50
2018-06-19T10:37:37.038Z,32.30
2018-06-19T10:40:07.624Z,32.70
2018-06-19T10:42:41.582Z,32.90
2018-06-19T10:45:17.871Z,33.10
2018-06-19T10:47:51.688Z,33.30
2018-06-19T10:50:28.110Z,32.20
2018-06-19T10:52:59.541Z,32.80
2018-06-19T10:55:30.126Z,32.60
2018-06-19T10:58:02.468Z,32.50
2018-06-19T11:00:37.943Z,32.90
2018-06-19T11:03:26.364Z,33.60
2018-06-19T11:06:02.948Z,34.10
2018-06-19T11:08:55.502Z,33.40
2018-06-19T11:11:26.827Z,31.10
2018-06-19T11:14:04.635Z,31.30
2018-06-19T11:16:46.755Z,31.00
2018-06-19T11:19:20.947Z,32.20
2018-06-19T11:22:00.333Z,33.70
2018-06-19T11:24:36.624Z,34.30
2018-06-19T11:27:17.436Z,34.90
2018-06-19T11:29:58.789Z,35.60
2018-06-19T11:32:31.401Z,35.70
2018-06-19T11:35:09.572Z,35.80
2018-06-19T11:37:40.626Z,36.00
2018-06-19T11:40:11.143Z,36.50
2018-06-19T11:42:46.211Z,36.60
2018-06-19T11:45:19.979Z,34.00
2018-06-19T11:47:52.753Z,32.60
2018-06-19T11:50:24.298Z,32.00
2018-06-19T11:53:01.135Z,31.50
2018-06-19T11:55:32.741Z,31.90
2018-06-19T11:58:04.584Z,32.00
2018-06-19T12:00:40.757Z,31.50
2018-06-19T12:03:13.544Z,31.30
2018-06-19T12:05:44.987Z,32.20
2018-06-19T12:08:32.007Z,33.40
2018-06-19T12:11:02.744Z,34.60
2018-06-19T12:13:39.055Z,33.40
2018-06-19T12:16:09.643Z,33.40
2018-06-19T12:18:47.539Z,32.50
2018-06-19T12:21:19.310Z,31.70
2018-06-19T12:23:51.537Z,31.50
2018-06-19T12:26:23.919Z,31.50
2018-06-19T12:28:54.627Z,32.70
2018-06-19T12:31:25.596Z,32.50
2018-06-19T12:34:08.497Z,31.70
2018-06-19T12:36:46.283Z,31.00
2018-06-19T12:39:19.977Z,31.20
2018-06-19T12:41:58.498Z,30.80
2018-06-19T12:44:32.715Z,31.90
2018-06-19T12:47:09.046Z,31.50
2018-06-19T12:50:01.319Z,32.50
2018-06-19T12:52:49.019Z,33.10
2018-06-19T12:58:06.798Z,33.10
2018-06-19T13:00:44.608Z,32.60
2018-06-19T13:03:33.756Z,32.40
2018-06-19T13:06:24.582Z,33.00
2018-06-19T13:09:02.039Z,32.00
2018-06-19T13:11:34.322Z,31.70
2018-06-19T13:14:26.955Z,32.70
2018-06-19T13:17:15.914Z,32.70
2018-06-19T13:20:07.330Z,32.30
2018-06-19T13:22:48.421Z,32.20
2018-06-19T13:25:25.908Z,33.50
2018-06-19T13:28:08.805Z,33.40
2018-06-19T13:30:57.797Z,34.60
2018-06-19T13:33:34.909Z,34.70
2018-06-19T13:36:11.138Z,35.20
2018-06-19T13:38:41.946Z,36.70
2018-06-19T13:41:29.391Z,38.10
2018-06-19T13:44:19.561Z,39.00
2018-06-19T13:46:52.370Z,39.00
2018-06-19T13:49:22.747Z,39.80
2018-06-19T13:51:55.810Z,38.20
2018-06-19T13:54:26.750Z,37.80
2018-06-19T13:57:44.143Z,36.90
2018-06-19T14:00:18.666Z,37.00
2018-06-19T14:02:55.059Z,37.00
2018-06-19T14:05:26.974Z,37.60
2018-06-19T14:08:15.373Z,38.60
2018-06-19T14:11:03.366Z,38.00
2018-06-19T14:16:16.343Z,39.10
2018-06-19T14:18:47.206Z,38.50
2018-06-19T14:21:17.948Z,39.10
2018-06-19T14:23:55.806Z,38.40
2018-06-19T14:26:27.227Z,38.50
2018-06-19T14:29:00.892Z,37.50
2018-06-19T14:31:43.183Z,36.70
2018-06-19T14:34:14.690Z,34.70
2018-06-19T14:36:56.118Z,34.70
2018-06-19T14:39:30.925Z,34.80
2018-06-19T14:42:03.620Z,35.10
2018-06-19T14:44:38.661Z,35.20
2018-06-19T14:47:16.186Z,35.60
2018-06-19T14:49:54.446Z,35.80
2018-06-19T14:52:44.073Z,36.30
2018-06-19T14:55:30.744Z,37.00
2018-06-19T14:58:01.383Z,38.10
2018-06-19T15:00:36.827Z,37.60
2018-06-19T15:03:07.348Z,37.30
2018-06-19T15:05:42.068Z,39.10
2018-06-19T15:08:25.755Z,39.20
2018-06-19T15:10:59.914Z,38.90
2018-06-19T15:13:37.545Z,38.50
2018-06-19T15:16:15.711Z,38.50
2018-06-19T15:18:48.092Z,39.00
2018-06-19T15:21:25.950Z,37.70
2018-06-19T15:23:56.547Z,37.40
2018-06-19T15:26:55.720Z,37.60
2018-06-19T15:29:34.017Z,37.60
2018-06-19T15:32:22.629Z,37.60
2018-06-19T15:35:00.614Z,37.70
2018-06-19T15:37:32.151Z,35.10
2018-06-19T15:40:17.155Z,32.50
2018-06-19T15:42:52.267Z,34.30
2018-06-19T15:45:26.531Z,35.30
2018-06-19T15:48:25.338Z,35.80
2018-06-19T15:50:58.240Z,34.70
2018-06-19T15:53:39.910Z,33.60
2018-06-19T15:59:02.299Z,35.60
2018-06-19T16:01:33.967Z,35.60
2018-06-19T16:04:06.616Z,35.20
2018-06-19T16:06:49.450Z,35.60
2018-06-19T16:09:23.330Z,36.10
2018-06-19T16:11:55.637Z,36.80
2018-06-19T16:14:27.048Z,36.30
2018-06-19T16:17:01.742Z,35.40
2018-06-19T16:19:43.931Z,35.10
2018-06-19T16:22:14.873Z,35.20
2018-06-19T16:24:46.807Z,35.30
2018-06-19T16:27:20.081Z,35.50
2018-06-19T16:30:03.839Z,36.50
2018-06-19T16:32:34.598Z,36.60
2018-06-19T16:35:28.575Z,35.50
2018-06-19T16:38:07.653Z,35.20
2018-06-19T16:40:47.672Z,35.30
2018-06-19T16:43:21.895Z,35.10
2018-06-19T16:46:01.922Z,35.50
2018-06-19T16:48:38.058Z,34.50
2018-06-19T16:51:14.111Z,33.50
2018-06-19T16:53:55.135Z,33.40
2018-06-19T16:56:32.193Z,33.70
2018-06-19T16:59:03.569Z,33.30
2018-06-19T17:01:38.146Z,32.90
2018-06-19T17:04:27.656Z,32.80
2018-06-19T17:07:17.256Z,32.90
2018-06-19T17:09:56.438Z,33.30
2018-06-19T17:12:27.948Z,32.90
2018-06-19T17:15:00.188Z,32.40
2018-06-19T17:17:33.021Z,32.60
2018-06-19T17:20:11.161Z,33.20
2018-06-19T17:22:48.018Z,32.90
2018-06-19T17:25:42.815Z,32.50
2018-06-19T17:34:01.844Z,31.40
2018-06-19T17:37:22.134Z,31.70
2018-06-19T17:40:07.964Z,32.20
2018-06-19T17:43:11.402Z,32.80
2018-06-19T17:45:55.076Z,33.20
2018-06-19T17:48:27.727Z,33.20
2018-06-19T17:51:02.273Z,33.50
2018-06-19T17:53:53.267Z,33.50
2018-06-19T17:56:30.020Z,33.30
2018-06-19T17:59:15.816Z,32.60
2018-06-19T18:05:02.005Z,33.10
2018-06-19T18:07:34.163Z,32.90
2018-06-19T18:10:21.343Z,32.30
2018-06-19T18:13:01.502Z,32.10
2018-06-19T18:15:38.302Z,31.80
2018-06-19T18:18:11.164Z,31.30
2018-06-19T18:20:43.726Z,31.40
2018-06-19T18:23:18.123Z,31.80
2018-06-19T18:25:53.967Z,32.00
2018-06-19T18:28:25.439Z,31.80
2018-06-19T18:31:03.640Z,31.20
2018-06-19T18:33:39.879Z,31.10
2018-06-19T18:38:45.577Z,29.90
2018-06-19T18:41:21.138Z,29.30
2018-06-19T18:43:56.710Z,28.90
2018-06-19T18:46:30.802Z,28.10
2018-06-19T18:49:05.719Z,27.50
2018-06-19T18:51:36.172Z,26.70
2018-06-19T18:54:07.025Z,26.00
2018-06-19T18:56:38.867Z,25.50
2018-06-19T18:59:11.525Z,24.80
2018-06-19T19:01:42.696Z,24.30
2018-06-19T19:04:14.015Z,23.80
2018-06-19T19:06:44.527Z,23.50
2018-06-19T19:09:19.780Z,23.10
2018-06-19T19:11:50.746Z,22.70
2018-06-19T19:14:21.454Z,22.40
2018-06-19T19:17:05.152Z,22.30
2018-06-19T19:19:47.715Z,22.00
2018-06-19T19:22:27.916Z,21.90
2018-06-19T19:25:09.266Z,21.60
2018-06-19T19:27:48.325Z,21.40
2018-06-19T19:30:20.846Z,21.20
2018-06-19T19:32:53.680Z,21.10
2018-06-19T19:35:25.382Z,20.90
2018-06-19T19:38:11.523Z,20.80
2018-06-19T19:40:49.501Z,20.60
2018-06-19T19:43:23.753Z,20.50
2018-06-19T19:46:02.789Z,20.40
2018-06-19T19:48:43.126Z,20.30
2018-06-19T19:51:13.908Z,20.30
2018-06-19T19:53:49.836Z,20.10
2018-06-19T19:56:25.661Z,20.00
2018-06-19T19:59:06.731Z,19.90
2018-06-19T20:01:42.003Z,19.90
2018-06-19T20:04:53.117Z,19.80
2018-06-19T20:07:27.406Z,19.60
2018-06-19T20:10:16.826Z,19.50
2018-06-19T20:13:03.787Z,19.50
2018-06-19T20:16:20.409Z,19.30
2018-06-19T20:22:00.873Z,19.10
2018-06-19T20:28:15.267Z,19.00
2018-06-19T20:31:10.851Z,18.90
2018-06-19T20:33:55.862Z,18.80
2018-06-19T20:36:43.357Z,18.70
2018-06-19T20:39:20.190Z,18.60
2018-06-19T20:46:12.527Z,18.50
2018-06-19T20:48:44.284Z,18.40
2018-06-19T20:51:32.430Z,18.40
2018-06-19T20:54:06.348Z,18.40
2018-06-19T20:56:49.531Z,18.40
2018-06-19T20:59:32.001Z,18.30
2018-06-19T21:04:42.716Z,18.30
2018-06-19T21:07:23.529Z,18.20
2018-06-19T21:09:55.153Z,18.20
2018-06-19T21:12:37.174Z,18.10
2018-06-19T21:15:10.900Z,18.00
2018-06-19T21:17:45.248Z,18.00
2018-06-19T21:20:16.494Z,17.90
2018-06-19T21:23:06.751Z,17.80
2018-06-19T21:25:37.631Z,17.80
2018-06-19T21:28:16.441Z,17.70
2018-06-19T21:30:53.220Z,17.70
2018-06-19T21:33:27.824Z,17.60
2018-06-19T21:36:14.458Z,17.60
2018-06-19T21:38:44.986Z,17.60
2018-06-19T21:41:15.560Z,17.60
2018-06-19T21:43:46.628Z,17.70
2018-06-19T21:46:20.801Z,17.70
2018-06-19T21:48:58.098Z,17.70
2018-06-19T21:51:46.112Z,17.60
2018-06-19T21:54:21.363Z,17.50
2018-06-19T21:57:10.499Z,17.40
2018-06-19T21:59:55.290Z,17.40
2018-06-19T22:02:33.641Z,17.40
2018-06-19T22:05:18.311Z,17.30
2018-06-19T22:07:57.190Z,17.30
2018-06-19T22:10:28.091Z,17.30
2018-06-19T22:13:05.849Z,17.20
2018-06-19T22:15:36.355Z,17.20
2018-06-19T22:18:17.817Z,17.10
2018-06-19T22:20:56.657Z,17.10
2018-06-19T22:23:39.745Z,17.00
2018-06-19T22:26:11.455Z,16.90
2018-06-19T22:28:43.428Z,17.00
2018-06-19T22:31:29.525Z,16.90
2018-06-19T22:34:01.408Z,16.80
2018-06-19T22:39:16.734Z,16.80
2018-06-19T22:41:52.708Z,16.70
2018-06-19T22:44:23.494Z,16.60
2018-06-19T22:47:05.954Z,16.60
2018-06-19T22:49:38.587Z,16.60
2018-06-19T22:52:14.652Z,16.50
2018-06-19T22:54:58.224Z,16.50
2018-06-19T22:57:28.863Z,16.40
2018-06-19T23:00:01.493Z,16.40
2018-06-19T23:02:43.034Z,16.30
2018-06-19T23:08:18.380Z,16.20
2018-06-19T23:10:49.678Z,16.20
2018-06-19T23:13:31.520Z,16.20
2018-06-19T23:16:06.761Z,16.20
2018-06-19T23:18:38.212Z,16.20
2018-06-19T23:21:17.195Z,16.20
2018-06-19T23:23:49.754Z,16.10
2018-06-19T23:26:20.775Z,16.10
2018-06-19T23:28:53.528Z,16.10
2018-06-19T23:31:28.804Z,16.00
2018-06-19T23:37:00.532Z,16.00
2018-06-19T23:39:35.008Z,15.90
2018-06-19T23:42:06.395Z,15.90
2018-06-19T23:44:39.435Z,15.80
2018-06-19T23:47:20.252Z,15.80
2018-06-19T23:49:56.161Z,15.80
2018-06-19T23:52:30.073Z,15.70
2018-06-19T23:55:17.111Z,15.70
2018-06-19T23:58:07.382Z,15.60
